sensor_id;sensor_type;location;lat;lon;timestamp;P1;durP1;ratioP1;P2;durP2;ratioP2
66298;SDS011;53098;47.658;8.578;2022-08-04T00:00:17;3.57;;;1.50;;
66298;SDS011;53098;47.658;8.578;2022-08-04T00:05:10;3.00;;;1.37;;
66298;SDS011;53098;47.658;8.578;2022-08-04T00:10:20;3.50;;;1.60;;
66298;SDS011;53098;47.658;8.578;2022-08-04T00:12:47;3.30;;;1.50;;
66298;SDS011;53098;47.658;8.578;2022-08-04T00:15:15;3.40;;;1.65;;
66298;SDS011;53098;47.658;8.578;2022-08-04T00:17:44;4.07;;;1.67;;
66298;SDS011;53098;47.658;8.578;2022-08-04T00:20:09;3.63;;;1.42;;
66298;SDS011;53098;47.658;8.578;2022-08-04T00:22:37;3.60;;;1.70;;
66298;SDS011;53098;47.658;8.578;2022-08-04T00:25:04;3.20;;;1.50;;
66298;SDS011;53098;47.658;8.578;2022-08-04T00:27:30;6.90;;;1.90;;
66298;SDS011;53098;47.658;8.578;2022-08-04T00:29:56;4.03;;;1.63;;
66298;SDS011;53098;47.658;8.578;2022-08-04T00:32:21;3.47;;;1.52;;
66298;SDS011;53098;47.658;8.578;2022-08-04T00:34:47;3.33;;;1.60;;
66298;SDS011;53098;47.658;8.578;2022-08-04T00:37:12;3.87;;;1.77;;
66298;SDS011;53098;47.658;8.578;2022-08-04T00:39:38;6.55;;;1.83;;
66298;SDS011;53098;47.658;8.578;2022-08-04T00:52:35;3.67;;;1.50;;
66298;SDS011;53098;47.658;8.578;2022-08-04T00:55:22;3.80;;;1.55;;
66298;SDS011;53098;47.658;8.578;2022-08-04T01:00:43;3.70;;;1.48;;
66298;SDS011;53098;47.658;8.578;2022-08-04T01:03:23;5.53;;;1.90;;
66298;SDS011;53098;47.658;8.578;2022-08-04T01:16:18;5.37;;;1.53;;
66298;SDS011;53098;47.658;8.578;2022-08-04T01:19:05;2.80;;;1.60;;
66298;SDS011;53098;47.658;8.578;2022-08-04T01:21:40;3.88;;;1.50;;
66298;SDS011;53098;47.658;8.578;2022-08-04T01:29:23;3.40;;;1.60;;
66298;SDS011;53098;47.658;8.578;2022-08-04T01:31:59;5.90;;;1.67;;
66298;SDS011;53098;47.658;8.578;2022-08-04T01:34:26;2.95;;;1.50;;
66298;SDS011;53098;47.658;8.578;2022-08-04T01:39:49;3.50;;;1.70;;
66298;SDS011;53098;47.658;8.578;2022-08-04T01:42:14;5.25;;;1.58;;
66298;SDS011;53098;47.658;8.578;2022-08-04T01:44:41;3.63;;;1.80;;
66298;SDS011;53098;47.658;8.578;2022-08-04T01:47:07;3.35;;;1.65;;
66298;SDS011;53098;47.658;8.578;2022-08-04T01:49:33;3.53;;;1.50;;
66298;SDS011;53098;47.658;8.578;2022-08-04T01:51:59;2.65;;;1.48;;
66298;SDS011;53098;47.658;8.578;2022-08-04T01:54:26;5.65;;;1.67;;
66298;SDS011;53098;47.658;8.578;2022-08-04T01:56:53;3.17;;;1.30;;
66298;SDS011;53098;47.658;8.578;2022-08-04T01:59:19;3.20;;;1.50;;
66298;SDS011;53098;47.658;8.578;2022-08-04T02:01:45;3.08;;;1.35;;
66298;SDS011;53098;47.658;8.578;2022-08-04T02:04:14;2.90;;;1.50;;
66298;SDS011;53098;47.658;8.578;2022-08-04T02:06:44;3.38;;;1.50;;
66298;SDS011;53098;47.658;8.578;2022-08-04T02:11:41;4.43;;;1.90;;
66298;SDS011;53098;47.658;8.578;2022-08-04T02:14:24;5.03;;;1.38;;
66298;SDS011;53098;47.658;8.578;2022-08-04T02:16:50;5.47;;;1.70;;
66298;SDS011;53098;47.658;8.578;2022-08-04T02:19:29;2.65;;;1.55;;
66298;SDS011;53098;47.658;8.578;2022-08-04T02:21:57;3.03;;;1.45;;
66298;SDS011;53098;47.658;8.578;2022-08-04T02:24:26;3.00;;;1.60;;
66298;SDS011;53098;47.658;8.578;2022-08-04T02:26:52;3.13;;;1.60;;
66298;SDS011;53098;47.658;8.578;2022-08-04T02:31:54;5.32;;;1.80;;
66298;SDS011;53098;47.658;8.578;2022-08-04T02:34:24;2.78;;;1.35;;
66298;SDS011;53098;47.658;8.578;2022-08-04T02:36:50;5.25;;;1.60;;
66298;SDS011;53098;47.658;8.578;2022-08-04T02:39:16;3.20;;;1.77;;
66298;SDS011;53098;47.658;8.578;2022-08-04T02:41:43;4.72;;;1.60;;
66298;SDS011;53098;47.658;8.578;2022-08-04T02:44:10;4.15;;;1.70;;
66298;SDS011;53098;47.658;8.578;2022-08-04T02:46:36;3.10;;;1.60;;
66298;SDS011;53098;47.658;8.578;2022-08-04T02:49:03;2.72;;;1.52;;
66298;SDS011;53098;47.658;8.578;2022-08-04T02:51:30;3.65;;;1.80;;
66298;SDS011;53098;47.658;8.578;2022-08-04T02:53:56;3.72;;;1.60;;
66298;SDS011;53098;47.658;8.578;2022-08-04T02:56:23;4.60;;;1.83;;
66298;SDS011;53098;47.658;8.578;2022-08-04T02:58:50;5.55;;;1.83;;
66298;SDS011;53098;47.658;8.578;2022-08-04T03:01:16;5.07;;;2.03;;
66298;SDS011;53098;47.658;8.578;2022-08-04T03:03:50;3.30;;;1.40;;
66298;SDS011;53098;47.658;8.578;2022-08-04T03:06:36;7.40;;;1.83;;
66298;SDS011;53098;47.658;8.578;2022-08-04T03:09:26;4.70;;;1.50;;
66298;SDS011;53098;47.658;8.578;2022-08-04T03:25:10;3.13;;;1.38;;
66298;SDS011;53098;47.658;8.578;2022-08-04T03:30:08;5.23;;;1.53;;
66298;SDS011;53098;47.658;8.578;2022-08-04T03:43:18;4.15;;;1.70;;
66298;SDS011;53098;47.658;8.578;2022-08-04T03:50:45;4.00;;;1.77;;
66298;SDS011;53098;47.658;8.578;2022-08-04T04:19:16;2.67;;;1.40;;
66298;SDS011;53098;47.658;8.578;2022-08-04T04:22:23;2.60;;;1.38;;
66298;SDS011;53098;47.658;8.578;2022-08-04T04:29:51;4.97;;;2.00;;
66298;SDS011;53098;47.658;8.578;2022-08-04T04:32:31;3.33;;;1.50;;
66298;SDS011;53098;47.658;8.578;2022-08-04T04:42:31;6.53;;;1.90;;
66298;SDS011;53098;47.658;8.578;2022-08-04T04:47:35;6.35;;;1.90;;
66298;SDS011;53098;47.658;8.578;2022-08-04T04:50:08;5.03;;;2.13;;
66298;SDS011;53098;47.658;8.578;2022-08-04T04:52:37;4.88;;;1.73;;
66298;SDS011;53098;47.658;8.578;2022-08-04T04:55:09;3.40;;;1.55;;
66298;SDS011;53098;47.658;8.578;2022-08-04T04:57:36;6.03;;;1.70;;
66298;SDS011;53098;47.658;8.578;2022-08-04T05:00:04;4.43;;;1.73;;
66298;SDS011;53098;47.658;8.578;2022-08-04T05:13:05;4.32;;;2.00;;
66298;SDS011;53098;47.658;8.578;2022-08-04T05:15:39;3.95;;;1.75;;
66298;SDS011;53098;47.658;8.578;2022-08-04T05:18:06;4.88;;;2.30;;
66298;SDS011;53098;47.658;8.578;2022-08-04T05:20:33;4.63;;;2.08;;
66298;SDS011;53098;47.658;8.578;2022-08-04T05:23:01;4.28;;;1.77;;
66298;SDS011;53098;47.658;8.578;2022-08-04T05:28:03;5.28;;;1.70;;
66298;SDS011;53098;47.658;8.578;2022-08-04T05:30:29;4.78;;;1.67;;
66298;SDS011;53098;47.658;8.578;2022-08-04T05:32:59;5.00;;;1.98;;
66298;SDS011;53098;47.658;8.578;2022-08-04T05:36:09;5.32;;;2.00;;
66298;SDS011;53098;47.658;8.578;2022-08-04T05:38:15;16.63;;;2.22;;
66298;SDS011;53098;47.658;8.578;2022-08-04T05:40:42;18.60;;;2.53;;
66298;SDS011;53098;47.658;8.578;2022-08-04T05:43:07;18.98;;;2.22;;
66298;SDS011;53098;47.658;8.578;2022-08-04T05:45:33;6.95;;;2.20;;
66298;SDS011;53098;47.658;8.578;2022-08-04T05:48:02;6.05;;;2.13;;
66298;SDS011;53098;47.658;8.578;2022-08-04T05:50:29;6.90;;;2.35;;
66298;SDS011;53098;47.658;8.578;2022-08-04T05:52:55;4.90;;;2.03;;
66298;SDS011;53098;47.658;8.578;2022-08-04T05:55:21;6.25;;;2.17;;
66298;SDS011;53098;47.658;8.578;2022-08-04T05:57:46;6.28;;;2.17;;
66298;SDS011;53098;47.658;8.578;2022-08-04T06:00:13;6.47;;;2.13;;
66298;SDS011;53098;47.658;8.578;2022-08-04T06:02:39;4.00;;;2.03;;
66298;SDS011;53098;47.658;8.578;2022-08-04T06:05:05;4.65;;;2.03;;
66298;SDS011;53098;47.658;8.578;2022-08-04T06:07:31;5.28;;;2.03;;
66298;SDS011;53098;47.658;8.578;2022-08-04T06:09:56;8.40;;;2.43;;
66298;SDS011;53098;47.658;8.578;2022-08-04T06:12:23;4.77;;;1.90;;
66298;SDS011;53098;47.658;8.578;2022-08-04T06:14:49;5.32;;;2.20;;
66298;SDS011;53098;47.658;8.578;2022-08-04T06:17:23;6.15;;;2.35;;
66298;SDS011;53098;47.658;8.578;2022-08-04T06:19:49;6.18;;;2.30;;
66298;SDS011;53098;47.658;8.578;2022-08-04T06:22:16;4.35;;;2.20;;
66298;SDS011;53098;47.658;8.578;2022-08-04T06:24:42;6.30;;;2.65;;
66298;SDS011;53098;47.658;8.578;2022-08-04T06:27:09;6.93;;;2.38;;
66298;SDS011;53098;47.658;8.578;2022-08-04T06:29:34;6.30;;;2.30;;
66298;SDS011;53098;47.658;8.578;2022-08-04T06:32:00;5.18;;;2.30;;
66298;SDS011;53098;47.658;8.578;2022-08-04T06:34:27;7.15;;;2.28;;
66298;SDS011;53098;47.658;8.578;2022-08-04T06:36:53;5.85;;;2.40;;
66298;SDS011;53098;47.658;8.578;2022-08-04T06:39:18;5.05;;;2.13;;
66298;SDS011;53098;47.658;8.578;2022-08-04T06:41:45;7.03;;;2.25;;
66298;SDS011;53098;47.658;8.578;2022-08-04T06:44:11;6.75;;;2.22;;
66298;SDS011;53098;47.658;8.578;2022-08-04T06:46:39;6.35;;;2.40;;
66298;SDS011;53098;47.658;8.578;2022-08-04T06:49:04;5.00;;;2.13;;
66298;SDS011;53098;47.658;8.578;2022-08-04T06:51:30;6.28;;;2.35;;
66298;SDS011;53098;47.658;8.578;2022-08-04T06:53:55;4.68;;;2.08;;
66298;SDS011;53098;47.658;8.578;2022-08-04T06:56:21;6.00;;;2.47;;
66298;SDS011;53098;47.658;8.578;2022-08-04T06:58:46;6.70;;;2.53;;
66298;SDS011;53098;47.658;8.578;2022-08-04T07:01:13;6.40;;;2.22;;
66298;SDS011;53098;47.658;8.578;2022-08-04T07:03:38;6.18;;;2.63;;
66298;SDS011;53098;47.658;8.578;2022-08-04T07:06:04;6.03;;;2.10;;
66298;SDS011;53098;47.658;8.578;2022-08-04T07:08:29;7.57;;;2.60;;
66298;SDS011;53098;47.658;8.578;2022-08-04T07:10:56;8.60;;;2.35;;
66298;SDS011;53098;47.658;8.578;2022-08-04T07:13:21;6.47;;;1.90;;
66298;SDS011;53098;47.658;8.578;2022-08-04T07:15:47;6.60;;;2.35;;
66298;SDS011;53098;47.658;8.578;2022-08-04T07:18:13;7.45;;;2.22;;
66298;SDS011;53098;47.658;8.578;2022-08-04T07:20:41;8.57;;;2.33;;
66298;SDS011;53098;47.658;8.578;2022-08-04T07:23:07;10.10;;;2.95;;
66298;SDS011;53098;47.658;8.578;2022-08-04T07:25:34;7.22;;;2.53;;
66298;SDS011;53098;47.658;8.578;2022-08-04T07:27:59;8.13;;;2.35;;
66298;SDS011;53098;47.658;8.578;2022-08-04T07:30:25;8.67;;;2.57;;
66298;SDS011;53098;47.658;8.578;2022-08-04T07:32:53;6.22;;;2.35;;
66298;SDS011;53098;47.658;8.578;2022-08-04T07:35:18;8.68;;;2.60;;
66298;SDS011;53098;47.658;8.578;2022-08-04T07:37:44;9.50;;;2.90;;
66298;SDS011;53098;47.658;8.578;2022-08-04T07:40:09;7.50;;;2.43;;
66298;SDS011;53098;47.658;8.578;2022-08-04T07:42:35;11.05;;;2.60;;
66298;SDS011;53098;47.658;8.578;2022-08-04T07:45:01;6.03;;;2.55;;
66298;SDS011;53098;47.658;8.578;2022-08-04T07:47:26;6.35;;;2.90;;
66298;SDS011;53098;47.658;8.578;2022-08-04T07:49:52;6.68;;;2.70;;
66298;SDS011;53098;47.658;8.578;2022-08-04T07:52:17;8.40;;;3.10;;
66298;SDS011;53098;47.658;8.578;2022-08-04T07:54:43;9.48;;;2.85;;
66298;SDS011;53098;47.658;8.578;2022-08-04T07:57:08;7.68;;;2.78;;
66298;SDS011;53098;47.658;8.578;2022-08-04T07:59:34;9.88;;;2.75;;
66298;SDS011;53098;47.658;8.578;2022-08-04T08:02:00;8.95;;;3.38;;
66298;SDS011;53098;47.658;8.578;2022-08-04T08:04:25;9.25;;;3.03;;
66298;SDS011;53098;47.658;8.578;2022-08-04T08:06:51;5.72;;;2.88;;
66298;SDS011;53098;47.658;8.578;2022-08-04T08:09:16;6.93;;;3.17;;
66298;SDS011;53098;47.658;8.578;2022-08-04T08:11:43;8.52;;;2.92;;
66298;SDS011;53098;47.658;8.578;2022-08-04T08:14:08;9.45;;;3.05;;
66298;SDS011;53098;47.658;8.578;2022-08-04T08:16:34;8.77;;;3.30;;
66298;SDS011;53098;47.658;8.578;2022-08-04T08:19:00;6.13;;;3.30;;
66298;SDS011;53098;47.658;8.578;2022-08-04T08:21:25;9.13;;;3.28;;
66298;SDS011;53098;47.658;8.578;2022-08-04T08:23:51;10.38;;;3.35;;
66298;SDS011;53098;47.658;8.578;2022-08-04T08:26:16;6.68;;;2.83;;
66298;SDS011;53098;47.658;8.578;2022-08-04T08:28:42;5.53;;;2.72;;
66298;SDS011;53098;47.658;8.578;2022-08-04T08:31:07;5.85;;;2.88;;
66298;SDS011;53098;47.658;8.578;2022-08-04T08:33:32;8.40;;;3.23;;
66298;SDS011;53098;47.658;8.578;2022-08-04T08:39:12;9.75;;;3.33;;
66298;SDS011;53098;47.658;8.578;2022-08-04T08:55:18;6.55;;;2.83;;
66298;SDS011;53098;47.658;8.578;2022-08-04T09:00:27;6.57;;;2.78;;
66298;SDS011;53098;47.658;8.578;2022-08-04T09:08:24;7.13;;;3.03;;
66298;SDS011;53098;47.658;8.578;2022-08-04T09:11:29;12.77;;;2.90;;
66298;SDS011;53098;47.658;8.578;2022-08-04T09:16:33;5.05;;;2.90;;
66298;SDS011;53098;47.658;8.578;2022-08-04T09:19:01;7.43;;;2.70;;
66298;SDS011;53098;47.658;8.578;2022-08-04T09:21:44;12.07;;;2.88;;
66298;SDS011;53098;47.658;8.578;2022-08-04T09:24:14;5.78;;;2.47;;
66298;SDS011;53098;47.658;8.578;2022-08-04T09:26:45;8.25;;;2.75;;
66298;SDS011;53098;47.658;8.578;2022-08-04T09:36:55;7.03;;;2.30;;
66298;SDS011;53098;47.658;8.578;2022-08-04T09:44:51;8.13;;;2.38;;
66298;SDS011;53098;47.658;8.578;2022-08-04T09:47:25;7.85;;;2.45;;
66298;SDS011;53098;47.658;8.578;2022-08-04T10:00:35;6.13;;;2.20;;
66298;SDS011;53098;47.658;8.578;2022-08-04T10:05:39;7.30;;;2.63;;
66298;SDS011;53098;47.658;8.578;2022-08-04T10:08:26;5.55;;;2.15;;
66298;SDS011;53098;47.658;8.578;2022-08-04T10:10:55;9.20;;;2.22;;
66298;SDS011;53098;47.658;8.578;2022-08-04T10:21:30;4.40;;;1.88;;
66298;SDS011;53098;47.658;8.578;2022-08-04T10:24:11;4.82;;;1.60;;
66298;SDS011;53098;47.658;8.578;2022-08-04T10:26:50;8.15;;;2.20;;
66298;SDS011;53098;47.658;8.578;2022-08-04T10:32:22;6.60;;;1.88;;
66298;SDS011;53098;47.658;8.578;2022-08-04T10:35:00;6.68;;;1.42;;
66298;SDS011;53098;47.658;8.578;2022-08-04T10:37:32;5.20;;;2.10;;
66298;SDS011;53098;47.658;8.578;2022-08-04T10:40:06;4.63;;;1.73;;
66298;SDS011;53098;47.658;8.578;2022-08-04T10:42:34;3.85;;;1.70;;
66298;SDS011;53098;47.658;8.578;2022-08-04T10:45:05;3.55;;;1.70;;
66298;SDS011;53098;47.658;8.578;2022-08-04T10:47:33;4.05;;;1.70;;
66298;SDS011;53098;47.658;8.578;2022-08-04T10:50:00;6.57;;;1.58;;
66298;SDS011;53098;47.658;8.578;2022-08-04T10:52:33;3.50;;;1.55;;
66298;SDS011;53098;47.658;8.578;2022-08-04T10:55:04;7.18;;;1.73;;
66298;SDS011;53098;47.658;8.578;2022-08-04T10:57:40;3.05;;;1.58;;
66298;SDS011;53098;47.658;8.578;2022-08-04T11:00:08;5.65;;;1.50;;
66298;SDS011;53098;47.658;8.578;2022-08-04T11:07:31;8.38;;;1.67;;
66298;SDS011;53098;47.658;8.578;2022-08-04T11:09:56;4.20;;;1.70;;
66298;SDS011;53098;47.658;8.578;2022-08-04T11:12:23;3.28;;;1.60;;
66298;SDS011;53098;47.658;8.578;2022-08-04T11:14:50;4.88;;;1.77;;
66298;SDS011;53098;47.658;8.578;2022-08-04T11:17:25;4.78;;;1.48;;
66298;SDS011;53098;47.658;8.578;2022-08-04T11:22:35;3.05;;;1.50;;
66298;SDS011;53098;47.658;8.578;2022-08-04T11:25:19;2.63;;;1.35;;
66298;SDS011;53098;47.658;8.578;2022-08-04T11:30:13;7.28;;;2.97;;
66298;SDS011;53098;47.658;8.578;2022-08-04T11:32:50;3.90;;;1.60;;
66298;SDS011;53098;47.658;8.578;2022-08-04T11:35:26;7.68;;;1.48;;
66298;SDS011;53098;47.658;8.578;2022-08-04T11:37:56;6.22;;;1.70;;
66298;SDS011;53098;47.658;8.578;2022-08-04T11:40:23;6.07;;;1.30;;
66298;SDS011;53098;47.658;8.578;2022-08-04T11:42:54;3.97;;;1.30;;
66298;SDS011;53098;47.658;8.578;2022-08-04T11:45:23;5.85;;;1.42;;
66298;SDS011;53098;47.658;8.578;2022-08-04T11:47:53;5.60;;;1.25;;
66298;SDS011;53098;47.658;8.578;2022-08-04T11:50:28;4.40;;;1.30;;
66298;SDS011;53098;47.658;8.578;2022-08-04T11:52:55;3.63;;;1.35;;
66298;SDS011;53098;47.658;8.578;2022-08-04T11:55:21;4.20;;;1.20;;
66298;SDS011;53098;47.658;8.578;2022-08-04T11:57:49;2.42;;;1.23;;
66298;SDS011;53098;47.658;8.578;2022-08-04T12:00:15;1.67;;;1.20;;
66298;SDS011;53098;47.658;8.578;2022-08-04T12:05:32;3.90;;;1.20;;
66298;SDS011;53098;47.658;8.578;2022-08-04T12:08:09;2.95;;;1.33;;
66298;SDS011;53098;47.658;8.578;2022-08-04T12:10:40;6.63;;;1.63;;
66298;SDS011;53098;47.658;8.578;2022-08-04T12:21:17;2.75;;;1.38;;
66298;SDS011;53098;47.658;8.578;2022-08-04T12:23:37;2.65;;;1.40;;
66298;SDS011;53098;47.658;8.578;2022-08-04T12:26:04;2.53;;;1.55;;
66298;SDS011;53098;47.658;8.578;2022-08-04T12:28:39;4.30;;;1.48;;
66298;SDS011;53098;47.658;8.578;2022-08-04T12:33:50;4.50;;;1.30;;
66298;SDS011;53098;47.658;8.578;2022-08-04T12:36:23;4.78;;;1.25;;
66298;SDS011;53098;47.658;8.578;2022-08-04T12:38:56;4.47;;;1.20;;
66298;SDS011;53098;47.658;8.578;2022-08-04T12:41:24;3.28;;;1.25;;
66298;SDS011;53098;47.658;8.578;2022-08-04T12:43:50;3.10;;;1.30;;
66298;SDS011;53098;47.658;8.578;2022-08-04T12:46:20;4.57;;;1.35;;
66298;SDS011;53098;47.658;8.578;2022-08-04T12:48:46;5.70;;;1.40;;
66298;SDS011;53098;47.658;8.578;2022-08-04T12:51:12;4.20;;;1.08;;
66298;SDS011;53098;47.658;8.578;2022-08-04T12:53:41;3.85;;;1.00;;
66298;SDS011;53098;47.658;8.578;2022-08-04T12:56:07;2.35;;;0.98;;
66298;SDS011;53098;47.658;8.578;2022-08-04T12:58:36;2.80;;;1.00;;
66298;SDS011;53098;47.658;8.578;2022-08-04T13:01:05;2.53;;;0.80;;
66298;SDS011;53098;47.658;8.578;2022-08-04T13:03:41;2.25;;;1.02;;
66298;SDS011;53098;47.658;8.578;2022-08-04T13:06:07;2.60;;;1.10;;
66298;SDS011;53098;47.658;8.578;2022-08-04T13:08:35;8.05;;;1.10;;
66298;SDS011;53098;47.658;8.578;2022-08-04T13:11:01;2.03;;;1.00;;
66298;SDS011;53098;47.658;8.578;2022-08-04T13:13:28;3.45;;;1.23;;
66298;SDS011;53098;47.658;8.578;2022-08-04T13:18:20;6.77;;;1.43;;
66298;SDS011;53098;47.658;8.578;2022-08-04T13:20:45;4.30;;;1.10;;
66298;SDS011;53098;47.658;8.578;2022-08-04T13:23:13;2.58;;;1.08;;
66298;SDS011;53098;47.658;8.578;2022-08-04T13:25:42;2.95;;;1.10;;
66298;SDS011;53098;47.658;8.578;2022-08-04T13:28:12;3.25;;;1.10;;
66298;SDS011;53098;47.658;8.578;2022-08-04T13:30:38;4.32;;;1.02;;
66298;SDS011;53098;47.658;8.578;2022-08-04T13:33:03;3.53;;;1.23;;
66298;SDS011;53098;47.658;8.578;2022-08-04T13:35:29;3.58;;;1.10;;
66298;SDS011;53098;47.658;8.578;2022-08-04T13:37:55;1.60;;;0.95;;
66298;SDS011;53098;47.658;8.578;2022-08-04T13:40:22;4.18;;;1.20;;
66298;SDS011;53098;47.658;8.578;2022-08-04T13:42:47;3.35;;;1.13;;
66298;SDS011;53098;47.658;8.578;2022-08-04T13:45:15;6.45;;;1.30;;
66298;SDS011;53098;47.658;8.578;2022-08-04T13:47:44;3.50;;;1.02;;
66298;SDS011;53098;47.658;8.578;2022-08-04T13:52:40;3.65;;;0.90;;
66298;SDS011;53098;47.658;8.578;2022-08-04T13:55:06;2.70;;;1.10;;
66298;SDS011;53098;47.658;8.578;2022-08-04T13:57:33;3.13;;;1.15;;
66298;SDS011;53098;47.658;8.578;2022-08-04T14:00:03;2.35;;;1.15;;
66298;SDS011;53098;47.658;8.578;2022-08-04T14:05:14;2.35;;;1.25;;
66298;SDS011;53098;47.658;8.578;2022-08-04T14:07:43;4.82;;;1.30;;
66298;SDS011;53098;47.658;8.578;2022-08-04T14:10:12;3.58;;;1.30;;
66298;SDS011;53098;47.658;8.578;2022-08-04T14:12:47;2.10;;;1.20;;
66298;SDS011;53098;47.658;8.578;2022-08-04T14:15:35;2.80;;;1.20;;
66298;SDS011;53098;47.658;8.578;2022-08-04T14:18:20;1.70;;;1.10;;
66298;SDS011;53098;47.658;8.578;2022-08-04T14:23:23;2.03;;;0.90;;
66298;SDS011;53098;47.658;8.578;2022-08-04T14:25:50;3.40;;;0.88;;
66298;SDS011;53098;47.658;8.578;2022-08-04T14:28:25;2.25;;;1.20;;
66298;SDS011;53098;47.658;8.578;2022-08-04T14:30:50;4.63;;;1.00;;
66298;SDS011;53098;47.658;8.578;2022-08-04T14:33:16;2.10;;;1.00;;
66298;SDS011;53098;47.658;8.578;2022-08-04T14:35:41;1.73;;;0.90;;
66298;SDS011;53098;47.658;8.578;2022-08-04T14:38:07;2.35;;;0.90;;
66298;SDS011;53098;47.658;8.578;2022-08-04T14:40:33;2.65;;;0.88;;
66298;SDS011;53098;47.658;8.578;2022-08-04T14:42:59;4.05;;;0.95;;
66298;SDS011;53098;47.658;8.578;2022-08-04T14:45:29;4.18;;;1.20;;
66298;SDS011;53098;47.658;8.578;2022-08-04T14:47:55;1.95;;;1.00;;
66298;SDS011;53098;47.658;8.578;2022-08-04T14:50:31;3.28;;;1.00;;
66298;SDS011;53098;47.658;8.578;2022-08-04T14:53:03;1.77;;;0.80;;
66298;SDS011;53098;47.658;8.578;2022-08-04T14:55:29;5.60;;;1.30;;
66298;SDS011;53098;47.658;8.578;2022-08-04T14:57:54;2.20;;;1.15;;
66298;SDS011;53098;47.658;8.578;2022-08-04T15:00:27;1.27;;;0.70;;
66298;SDS011;53098;47.658;8.578;2022-08-04T15:02:54;1.70;;;0.90;;
66298;SDS011;53098;47.658;8.578;2022-08-04T15:05:21;5.00;;;1.10;;
66298;SDS011;53098;47.658;8.578;2022-08-04T15:07:47;1.52;;;0.82;;
66298;SDS011;53098;47.658;8.578;2022-08-04T15:10:12;1.65;;;0.98;;
66298;SDS011;53098;47.658;8.578;2022-08-04T15:12:38;1.60;;;1.00;;
66298;SDS011;53098;47.658;8.578;2022-08-04T15:15:03;1.70;;;0.90;;
66298;SDS011;53098;47.658;8.578;2022-08-04T15:17:29;3.88;;;1.20;;
66298;SDS011;53098;47.658;8.578;2022-08-04T15:19:55;2.80;;;1.20;;
66298;SDS011;53098;47.658;8.578;2022-08-04T15:22:20;3.30;;;1.15;;
66298;SDS011;53098;47.658;8.578;2022-08-04T15:24:46;4.27;;;1.10;;
66298;SDS011;53098;47.658;8.578;2022-08-04T15:27:11;1.98;;;1.10;;
66298;SDS011;53098;47.658;8.578;2022-08-04T15:29:37;4.43;;;1.02;;
66298;SDS011;53098;47.658;8.578;2022-08-04T15:32:04;2.65;;;1.08;;
66298;SDS011;53098;47.658;8.578;2022-08-04T15:34:46;2.80;;;1.30;;
66298;SDS011;53098;47.658;8.578;2022-08-04T15:37:12;3.45;;;1.13;;
66298;SDS011;53098;47.658;8.578;2022-08-04T15:39:54;6.47;;;1.50;;
66298;SDS011;53098;47.658;8.578;2022-08-04T15:47:16;4.63;;;1.50;;
66298;SDS011;53098;47.658;8.578;2022-08-04T15:49:42;1.95;;;1.13;;
66298;SDS011;53098;47.658;8.578;2022-08-04T15:52:17;5.00;;;1.50;;
66298;SDS011;53098;47.658;8.578;2022-08-04T15:54:42;2.42;;;1.33;;
66298;SDS011;53098;47.658;8.578;2022-08-04T15:57:07;5.03;;;1.35;;
66298;SDS011;53098;47.658;8.578;2022-08-04T16:02:27;3.60;;;1.20;;
66298;SDS011;53098;47.658;8.578;2022-08-04T16:18:04;4.00;;;1.27;;
66298;SDS011;53098;47.658;8.578;2022-08-04T16:20:29;4.45;;;1.10;;
66298;SDS011;53098;47.658;8.578;2022-08-04T16:22:56;4.47;;;1.40;;
66298;SDS011;53098;47.658;8.578;2022-08-04T16:25:40;1.90;;;1.20;;
66298;SDS011;53098;47.658;8.578;2022-08-04T16:28:06;1.50;;;0.90;;
66298;SDS011;53098;47.658;8.578;2022-08-04T16:30:35;4.22;;;0.80;;
66298;SDS011;53098;47.658;8.578;2022-08-04T16:33:03;3.10;;;0.98;;
66298;SDS011;53098;47.658;8.578;2022-08-04T16:35:32;1.88;;;0.80;;
66298;SDS011;53098;47.658;8.578;2022-08-04T16:38:14;2.40;;;1.00;;
66298;SDS011;53098;47.658;8.578;2022-08-04T16:40:40;3.58;;;1.02;;
66298;SDS011;53098;47.658;8.578;2022-08-04T16:43:12;1.80;;;0.98;;
66298;SDS011;53098;47.658;8.578;2022-08-04T16:45:51;1.85;;;0.95;;
66298;SDS011;53098;47.658;8.578;2022-08-04T16:48:22;1.95;;;1.00;;
66298;SDS011;53098;47.658;8.578;2022-08-04T16:50:49;2.90;;;1.17;;
66298;SDS011;53098;47.658;8.578;2022-08-04T16:53:15;2.35;;;1.00;;
66298;SDS011;53098;47.658;8.578;2022-08-04T16:55:44;2.35;;;0.90;;
66298;SDS011;53098;47.658;8.578;2022-08-04T16:58:09;1.50;;;0.90;;
66298;SDS011;53098;47.658;8.578;2022-08-04T17:00:35;3.42;;;1.20;;
66298;SDS011;53098;47.658;8.578;2022-08-04T17:03:05;2.35;;;1.20;;
66298;SDS011;53098;47.658;8.578;2022-08-04T17:05:31;4.30;;;1.10;;
66298;SDS011;53098;47.658;8.578;2022-08-04T17:07:56;2.58;;;1.17;;
66298;SDS011;53098;47.658;8.578;2022-08-04T17:12:56;3.47;;;0.93;;
66298;SDS011;53098;47.658;8.578;2022-08-04T17:15:22;2.20;;;1.10;;
66298;SDS011;53098;47.658;8.578;2022-08-04T17:17:48;3.08;;;1.33;;
66298;SDS011;53098;47.658;8.578;2022-08-04T17:20:13;2.58;;;1.08;;
66298;SDS011;53098;47.658;8.578;2022-08-04T17:22:39;2.33;;;0.93;;
66298;SDS011;53098;47.658;8.578;2022-08-04T17:25:04;2.25;;;1.02;;
66298;SDS011;53098;47.658;8.578;2022-08-04T17:27:30;1.95;;;1.08;;
66298;SDS011;53098;47.658;8.578;2022-08-04T17:29:55;1.88;;;1.00;;
66298;SDS011;53098;47.658;8.578;2022-08-04T17:32:20;3.40;;;1.20;;
66298;SDS011;53098;47.658;8.578;2022-08-04T17:34:49;4.50;;;1.25;;
66298;SDS011;53098;47.658;8.578;2022-08-04T17:37:15;3.70;;;1.10;;
66298;SDS011;53098;47.658;8.578;2022-08-04T17:39:40;11.05;;;1.30;;
66298;SDS011;53098;47.658;8.578;2022-08-04T17:42:06;2.45;;;1.30;;
66298;SDS011;53098;47.658;8.578;2022-08-04T17:44:34;6.97;;;1.33;;
66298;SDS011;53098;47.658;8.578;2022-08-04T17:47:06;2.50;;;1.30;;
66298;SDS011;53098;47.658;8.578;2022-08-04T17:49:31;3.22;;;1.20;;
66298;SDS011;53098;47.658;8.578;2022-08-04T17:51:57;7.32;;;1.20;;
66298;SDS011;53098;47.658;8.578;2022-08-04T17:56:54;2.78;;;1.30;;
66298;SDS011;53098;47.658;8.578;2022-08-04T18:06:54;3.72;;;1.20;;
66298;SDS011;53098;47.658;8.578;2022-08-04T18:09:21;3.08;;;1.10;;
66298;SDS011;53098;47.658;8.578;2022-08-04T18:11:56;1.88;;;1.05;;
66298;SDS011;53098;47.658;8.578;2022-08-04T18:14:22;2.55;;;1.10;;
66298;SDS011;53098;47.658;8.578;2022-08-04T18:16:48;2.70;;;1.27;;
66298;SDS011;53098;47.658;8.578;2022-08-04T18:19:14;3.78;;;1.58;;
66298;SDS011;53098;47.658;8.578;2022-08-04T18:21:39;7.32;;;1.50;;
66298;SDS011;53098;47.658;8.578;2022-08-04T18:24:05;3.25;;;1.20;;
66298;SDS011;53098;47.658;8.578;2022-08-04T18:26:30;3.60;;;1.50;;
66298;SDS011;53098;47.658;8.578;2022-08-04T18:28:55;2.25;;;1.02;;
66298;SDS011;53098;47.658;8.578;2022-08-04T18:31:21;4.05;;;1.30;;
66298;SDS011;53098;47.658;8.578;2022-08-04T18:33:46;4.80;;;1.20;;
66298;SDS011;53098;47.658;8.578;2022-08-04T18:36:11;3.03;;;1.57;;
66298;SDS011;53098;47.658;8.578;2022-08-04T18:38:37;2.15;;;1.13;;
66298;SDS011;53098;47.658;8.578;2022-08-04T18:41:02;2.80;;;1.40;;
66298;SDS011;53098;47.658;8.578;2022-08-04T18:43:27;3.07;;;1.27;;
66298;SDS011;53098;47.658;8.578;2022-08-04T18:45:52;2.33;;;1.10;;
66298;SDS011;53098;47.658;8.578;2022-08-04T18:48:18;2.77;;;1.10;;
66298;SDS011;53098;47.658;8.578;2022-08-04T18:50:43;2.70;;;1.40;;
66298;SDS011;53098;47.658;8.578;2022-08-04T18:53:08;6.30;;;1.33;;
66298;SDS011;53098;47.658;8.578;2022-08-04T18:55:34;5.13;;;1.70;;
66298;SDS011;53098;47.658;8.578;2022-08-04T18:57:59;4.83;;;1.50;;
66298;SDS011;53098;47.658;8.578;2022-08-04T19:00:24;5.17;;;1.20;;
66298;SDS011;53098;47.658;8.578;2022-08-04T19:02:50;2.60;;;1.20;;
66298;SDS011;53098;47.658;8.578;2022-08-04T19:05:15;4.65;;;1.25;;
66298;SDS011;53098;47.658;8.578;2022-08-04T19:07:40;2.97;;;1.10;;
66298;SDS011;53098;47.658;8.578;2022-08-04T19:10:05;2.33;;;1.20;;
66298;SDS011;53098;47.658;8.578;2022-08-04T19:12:31;3.25;;;1.33;;
66298;SDS011;53098;47.658;8.578;2022-08-04T19:14:56;3.47;;;1.33;;